createdAt,value
2022-12-14T00:01:35.660Z,25.87
2022-12-14T00:04:02.454Z,23.40
2022-12-14T00:06:31.318Z,24.73
2022-12-14T00:09:00.392Z,28.63
2022-12-14T00:11:28.556Z,24.30
2022-12-14T00:14:00.530Z,25.10
2022-12-14T00:16:30.014Z,26.33
2022-12-14T00:18:59.094Z,25.77
2022-12-14T00:21:27.276Z,24.13
2022-12-14T00:23:55.347Z,28.10
2022-12-14T00:26:24.852Z,24.83
2022-12-14T00:28:53.882Z,27.23
2022-12-14T00:31:21.549Z,26.30
2022-12-14T00:33:50.334Z,26.07
2022-12-14T00:36:17.797Z,29.13
2022-12-14T00:38:44.762Z,26.10
2022-12-14T00:41:11.865Z,27.50
2022-12-14T00:43:39.191Z,27.60
2022-12-14T00:46:06.501Z,27.70
2022-12-14T00:48:33.899Z,30.50
2022-12-14T00:51:00.863Z,28.57
2022-12-14T00:53:27.851Z,25.93
2022-12-14T00:55:54.695Z,27.87
2022-12-14T00:58:23.770Z,30.57
2022-12-14T01:01:02.002Z,27.07
2022-12-14T01:03:29.373Z,27.90
2022-12-14T01:05:56.586Z,28.90
2022-12-14T01:08:24.185Z,24.77
2022-12-14T01:10:51.769Z,29.23
2022-12-14T01:13:18.805Z,26.63
2022-12-14T01:15:45.651Z,27.30
2022-12-14T01:18:13.025Z,28.33
2022-12-14T01:20:39.815Z,28.67
2022-12-14T01:23:06.597Z,28.43
2022-12-14T01:25:33.514Z,30.33
2022-12-14T01:28:00.284Z,30.80
2022-12-14T01:30:27.125Z,26.33
2022-12-14T01:32:53.977Z,27.73
2022-12-14T01:35:20.784Z,29.27
2022-12-14T01:37:49.198Z,30.90
2022-12-14T01:40:16.832Z,29.97
2022-12-14T01:42:43.796Z,28.93
2022-12-14T01:45:22.249Z,28.47
2022-12-14T01:47:55.950Z,28.23
2022-12-14T01:50:49.105Z,27.80
2022-12-14T01:53:21.597Z,27.70
2022-12-14T01:55:54.172Z,31.37
2022-12-14T01:58:26.199Z,30.87
2022-12-14T02:00:58.446Z,31.33
2022-12-14T02:03:40.370Z,31.13
2022-12-14T02:06:19.802Z,29.33
2022-12-14T02:08:50.440Z,28.47
2022-12-14T02:11:35.766Z,27.13
2022-12-14T02:14:02.517Z,33.10
2022-12-14T02:16:29.398Z,29.10
2022-12-14T02:18:56.265Z,32.10
2022-12-14T02:21:36.722Z,30.97
2022-12-14T02:24:09.459Z,28.67
2022-12-14T02:26:52.229Z,28.53
2022-12-14T02:29:27.925Z,31.63
2022-12-14T02:32:21.577Z,30.30
2022-12-14T02:34:53.463Z,33.23
2022-12-14T02:37:41.321Z,35.90
2022-12-14T02:40:21.668Z,34.13
2022-12-14T02:42:58.211Z,32.93
2022-12-14T02:45:40.993Z,30.70
2022-12-14T02:48:22.872Z,30.63
2022-12-14T02:51:03.395Z,32.10
2022-12-14T02:53:38.838Z,31.47
2022-12-14T02:56:13.956Z,34.33
2022-12-14T02:58:47.986Z,30.47
2022-12-14T03:01:19.326Z,33.27
2022-12-14T03:03:46.387Z,31.53
2022-12-14T03:06:27.505Z,32.43
2022-12-14T03:09:00.341Z,30.27
2022-12-14T03:11:41.443Z,32.80
2022-12-14T03:14:20.704Z,33.30
2022-12-14T03:16:50.620Z,32.67
2022-12-14T03:19:30.894Z,33.67
2022-12-14T03:22:09.471Z,33.60
2022-12-14T03:24:43.051Z,32.50
2022-12-14T03:27:22.382Z,32.13
2022-12-14T03:29:57.839Z,34.70
2022-12-14T03:32:29.430Z,33.43
2022-12-14T03:35:01.566Z,32.20
2022-12-14T03:38:06.553Z,33.93
2022-12-14T03:40:41.396Z,34.90
2022-12-14T03:43:50.119Z,34.93
2022-12-14T03:47:03.304Z,34.30
2022-12-14T03:49:41.932Z,34.37
2022-12-14T03:52:35.701Z,37.47
2022-12-14T03:55:29.208Z,29.60
2022-12-14T03:58:17.002Z,34.53
2022-12-14T04:01:02.241Z,35.03
2022-12-14T04:03:42.785Z,33.63
2022-12-14T04:06:21.939Z,39.17
2022-12-14T04:09:25.695Z,35.33
2022-12-14T04:12:18.487Z,34.63
2022-12-14T04:15:10.246Z,33.27
2022-12-14T04:17:58.127Z,35.57
2022-12-14T04:20:43.693Z,34.67
2022-12-14T04:23:16.563Z,33.33
2022-12-14T04:26:05.048Z,35.57
2022-12-14T04:28:57.597Z,36.67
2022-12-14T04:31:28.520Z,37.13
2022-12-14T04:33:59.233Z,34.43
2022-12-14T04:36:34.043Z,34.13
2022-12-14T04:39:06.293Z,35.37
2022-12-14T04:41:38.039Z,35.80
2022-12-14T04:44:12.225Z,36.73
2022-12-14T04:46:40.933Z,33.13
2022-12-14T04:49:23.202Z,34.83
2022-12-14T04:52:04.845Z,36.37
2022-12-14T04:54:45.731Z,34.87
2022-12-14T04:57:27.671Z,36.30
2022-12-14T04:59:55.494Z,35.43
2022-12-14T05:02:49.723Z,37.13
2022-12-14T05:05:18.457Z,31.87
2022-12-14T05:07:56.413Z,35.27
2022-12-14T05:10:44.330Z,36.13
2022-12-14T05:13:36.088Z,33.40
2022-12-14T05:16:03.311Z,35.20
2022-12-14T05:18:30.245Z,34.67
2022-12-14T05:20:57.023Z,36.87
2022-12-14T05:23:23.808Z,34.27
2022-12-14T05:25:50.614Z,35.43
2022-12-14T05:28:17.423Z,32.07
2022-12-14T05:30:45.434Z,35.83
2022-12-14T05:33:20.353Z,40.10
2022-12-14T05:35:47.259Z,36.67
2022-12-14T05:38:14.068Z,36.73
2022-12-14T05:40:40.971Z,36.20
2022-12-14T05:43:09.492Z,37.40
2022-12-14T05:45:36.669Z,33.17
2022-12-14T05:48:03.692Z,35.77
2022-12-14T05:50:31.295Z,36.10
2022-12-14T05:52:58.411Z,37.80
2022-12-14T05:55:25.205Z,33.73
2022-12-14T05:57:51.993Z,34.83
2022-12-14T06:00:18.996Z,36.47
2022-12-14T06:02:45.839Z,36.23
2022-12-14T06:05:12.679Z,37.57
2022-12-14T06:07:39.758Z,31.97
2022-12-14T06:10:06.845Z,37.50
2022-12-14T06:12:33.617Z,37.03
2022-12-14T06:15:00.403Z,34.20
2022-12-14T06:17:27.144Z,38.57
2022-12-14T06:19:53.913Z,34.97
2022-12-14T06:22:21.332Z,38.47
2022-12-14T06:24:48.135Z,36.27
2022-12-14T06:27:14.947Z,39.90
2022-12-14T06:29:41.747Z,37.63
2022-12-14T06:32:08.517Z,37.67
2022-12-14T06:34:39.096Z,38.90
2022-12-14T06:37:07.600Z,38.03
2022-12-14T06:39:34.422Z,37.10
2022-12-14T06:42:01.253Z,35.43
2022-12-14T06:44:28.114Z,41.60
2022-12-14T06:46:55.774Z,39.57
2022-12-14T06:49:22.646Z,40.43
2022-12-14T06:51:49.488Z,39.50
2022-12-14T06:54:17.583Z,40.23
2022-12-14T06:56:46.521Z,39.63
2022-12-14T06:59:14.800Z,39.63
2022-12-14T07:01:42.386Z,39.97
2022-12-14T07:04:09.689Z,37.00
2022-12-14T07:06:38.893Z,41.93
2022-12-14T07:09:07.150Z,39.47
2022-12-14T07:11:34.416Z,36.73
2022-12-14T07:14:03.179Z,39.87
2022-12-14T07:16:29.960Z,41.93
2022-12-14T07:18:57.012Z,43.07
2022-12-14T07:21:24.865Z,42.57
2022-12-14T07:23:52.477Z,41.70
2022-12-14T07:26:25.277Z,39.17
2022-12-14T07:28:52.731Z,40.57
2022-12-14T07:31:24.880Z,40.07
2022-12-14T07:33:57.093Z,41.93
2022-12-14T07:36:26.163Z,37.93
2022-12-14T07:38:53.878Z,38.90
2022-12-14T07:41:26.522Z,38.40
2022-12-14T07:43:55.135Z,36.20
2022-12-14T07:46:26.938Z,36.43
2022-12-14T07:48:57.689Z,37.90
2022-12-14T07:51:36.233Z,38.10
2022-12-14T07:54:05.289Z,36.20
2022-12-14T07:56:35.554Z,36.87
2022-12-14T07:59:04.979Z,37.07
2022-12-14T08:01:34.035Z,39.10
2022-12-14T08:04:06.042Z,41.27
2022-12-14T08:06:33.589Z,41.07
2022-12-14T08:09:01.169Z,42.13
2022-12-14T08:11:28.541Z,44.70
2022-12-14T08:13:57.224Z,41.67
2022-12-14T08:16:24.618Z,43.47
2022-12-14T08:18:53.918Z,41.27
2022-12-14T08:21:22.284Z,42.63
2022-12-14T08:23:50.204Z,43.67
2022-12-14T08:26:17.455Z,40.17
2022-12-14T08:28:44.785Z,40.87
2022-12-14T08:31:14.601Z,45.50
2022-12-14T08:33:43.104Z,42.97
2022-12-14T08:36:12.771Z,46.60
2022-12-14T08:38:41.256Z,45.33
2022-12-14T08:41:11.854Z,44.53
2022-12-14T08:43:40.480Z,47.40
2022-12-14T08:46:11.244Z,43.87
2022-12-14T08:48:38.253Z,44.80
2022-12-14T08:51:07.929Z,50.40
2022-12-14T08:53:35.796Z,49.13
2022-12-14T08:56:11.722Z,45.43
2022-12-14T08:58:40.473Z,46.70
2022-12-14T09:01:13.351Z,47.37
2022-12-14T09:03:41.817Z,45.00
2022-12-14T09:06:11.496Z,44.83
2022-12-14T09:08:38.644Z,50.37
2022-12-14T09:11:06.877Z,45.17
2022-12-14T09:13:34.374Z,48.80
2022-12-14T09:16:04.437Z,49.27
2022-12-14T09:18:32.626Z,48.03
2022-12-14T09:21:00.535Z,47.80
2022-12-14T09:23:29.670Z,49.50
2022-12-14T09:26:11.921Z,46.47
2022-12-14T09:28:42.242Z,45.57
2022-12-14T09:31:11.836Z,47.80
2022-12-14T09:33:39.176Z,50.73
2022-12-14T09:36:09.392Z,49.03
2022-12-14T09:38:37.942Z,47.77
2022-12-14T09:41:07.603Z,48.37
2022-12-14T09:43:44.251Z,48.87
2022-12-14T09:46:25.641Z,43.90
2022-12-14T09:48:54.510Z,49.53
2022-12-14T09:51:23.866Z,42.53
2022-12-14T09:54:02.665Z,49.10
2022-12-14T09:56:30.242Z,45.60
2022-12-14T09:58:59.332Z,49.77
2022-12-14T10:02:29.016Z,48.37
2022-12-14T10:04:51.314Z,48.03
2022-12-14T10:07:34.281Z,47.70
2022-12-14T10:10:40.396Z,44.40
2022-12-14T10:13:32.505Z,44.80
2022-12-14T10:16:13.416Z,45.93
2022-12-14T10:19:08.695Z,43.60
2022-12-14T10:21:47.379Z,45.27
2022-12-14T10:24:21.837Z,42.60
2022-12-14T10:26:54.768Z,43.50
2022-12-14T10:29:57.019Z,39.50
2022-12-14T10:32:48.948Z,40.03
2022-12-14T10:35:19.083Z,37.73
2022-12-14T10:37:53.703Z,41.70
2022-12-14T10:40:33.739Z,39.47
2022-12-14T10:43:08.805Z,43.63
2022-12-14T10:45:54.267Z,40.73
2022-12-14T10:48:33.551Z,41.67
2022-12-14T10:51:22.032Z,38.07
2022-12-14T10:54:07.348Z,39.03
2022-12-14T10:56:36.030Z,40.93
2022-12-14T10:59:14.939Z,40.87
2022-12-14T11:01:42.479Z,35.33
2022-12-14T11:04:35.752Z,34.57
2022-12-14T11:07:09.208Z,31.40
2022-12-14T11:09:37.843Z,37.43
2022-12-14T11:12:08.805Z,33.03
2022-12-14T11:14:41.460Z,35.17
2022-12-14T11:17:38.686Z,35.30
2022-12-14T11:20:23.142Z,37.70
2022-12-14T11:23:05.252Z,36.03
2022-12-14T11:25:36.557Z,36.37
2022-12-14T11:28:14.769Z,36.17
2022-12-14T11:30:52.244Z,36.17
2022-12-14T11:33:19.192Z,33.60
2022-12-14T11:35:52.488Z,33.97
2022-12-14T11:38:20.062Z,33.57
2022-12-14T11:40:47.428Z,31.90
2022-12-14T11:43:34.569Z,31.97
2022-12-14T11:46:01.840Z,30.17
2022-12-14T11:48:30.122Z,30.47
2022-12-14T11:51:15.412Z,29.27
2022-12-14T11:53:42.253Z,29.17
2022-12-14T11:56:15.997Z,32.80
2022-12-14T11:58:54.751Z,29.50
2022-12-14T12:01:25.617Z,30.67
2022-12-14T12:03:56.915Z,31.57
2022-12-14T12:06:29.846Z,30.53
2022-12-14T12:09:02.620Z,30.37
2022-12-14T12:11:34.798Z,31.23
2022-12-14T12:14:22.406Z,32.33
2022-12-14T12:16:49.262Z,31.93
2022-12-14T12:19:22.020Z,30.87
2022-12-14T12:21:49.248Z,33.33
2022-12-14T12:24:20.683Z,33.07
2022-12-14T12:27:00.556Z,30.40
2022-12-14T12:29:31.134Z,33.20
2022-12-14T12:32:03.718Z,32.00
2022-12-14T12:34:49.275Z,34.40
2022-12-14T12:37:28.180Z,29.93
2022-12-14T12:40:00.612Z,31.73
2022-12-14T12:42:51.936Z,32.27
2022-12-14T12:45:21.942Z,33.37
2022-12-14T12:48:07.032Z,30.90
2022-12-14T12:50:39.091Z,28.43
2022-12-14T12:53:19.055Z,27.10
2022-12-14T12:55:53.627Z,26.40
2022-12-14T12:58:32.641Z,27.37
2022-12-14T13:01:05.265Z,26.10
2022-12-14T13:03:42.377Z,26.10
2022-12-14T13:06:21.803Z,27.27
2022-12-14T13:08:55.973Z,26.13
2022-12-14T13:11:38.529Z,25.70
2022-12-14T13:14:22.837Z,26.37
2022-12-14T13:16:52.454Z,26.47
2022-12-14T13:19:54.725Z,28.30
2022-12-14T13:22:28.434Z,28.87
2022-12-14T13:24:59.750Z,27.67
2022-12-14T13:27:40.693Z,28.43
2022-12-14T13:30:24.709Z,26.90
2022-12-14T13:33:20.495Z,29.83
2022-12-14T13:36:22.848Z,26.17
2022-12-14T13:39:07.999Z,28.67
2022-12-14T13:41:53.416Z,29.83
2022-12-14T13:44:54.322Z,29.10
2022-12-14T13:47:29.546Z,27.60
2022-12-14T13:52:49.457Z,28.57
2022-12-14T13:55:36.001Z,29.67
2022-12-14T13:58:26.709Z,28.27
2022-12-14T14:01:00.371Z,27.40
2022-12-14T14:03:37.356Z,27.90
2022-12-14T14:06:32.547Z,28.67
2022-12-14T14:09:03.249Z,26.43
2022-12-14T14:11:38.333Z,27.63
2022-12-14T14:14:43.746Z,25.77
2022-12-14T14:17:39.209Z,26.83
2022-12-14T14:20:27.201Z,25.97
2022-12-14T14:23:12.846Z,27.93
2022-12-14T14:26:10.321Z,27.10
2022-12-14T14:28:38.083Z,28.30
2022-12-14T14:31:05.871Z,28.30
2022-12-14T14:33:46.643Z,27.37
2022-12-14T14:36:25.406Z,27.40
2022-12-14T14:38:55.102Z,28.83
2022-12-14T14:41:38.157Z,29.60
2022-12-14T14:44:19.936Z,33.97
2022-12-14T14:46:49.566Z,27.53
2022-12-14T14:49:25.826Z,30.57
2022-12-14T14:51:52.734Z,28.17
2022-12-14T14:57:52.168Z,30.27
2022-12-14T15:00:19.124Z,29.43
2022-12-14T15:02:46.342Z,31.53
2022-12-14T15:08:20.746Z,33.93
2022-12-14T15:10:50.251Z,37.43
2022-12-14T15:13:24.450Z,36.90
2022-12-14T15:15:53.571Z,33.73
2022-12-14T15:18:26.176Z,37.10
2022-12-14T15:21:07.070Z,41.00
2022-12-14T15:23:49.518Z,38.73
2022-12-14T15:26:28.802Z,46.90
2022-12-14T15:28:58.162Z,43.07
2022-12-14T15:31:39.886Z,38.80
2022-12-14T15:34:07.901Z,52.47
2022-12-14T15:36:37.901Z,39.63
2022-12-14T15:39:04.745Z,37.93
2022-12-14T15:41:33.432Z,42.83
2022-12-14T15:44:00.957Z,40.63
2022-12-14T15:46:31.273Z,38.47
2022-12-14T15:49:06.963Z,40.70
2022-12-14T15:51:36.429Z,38.17
2022-12-14T15:54:05.521Z,43.37
2022-12-14T15:56:36.881Z,47.53
2022-12-14T15:59:34.336Z,41.23
2022-12-14T16:02:17.041Z,41.50
2022-12-14T16:04:44.953Z,48.73
2022-12-14T16:07:38.582Z,43.77
2022-12-14T16:10:28.346Z,45.07
2022-12-14T16:13:13.869Z,44.50
2022-12-14T16:15:42.715Z,41.50
2022-12-14T16:18:17.775Z,43.37
2022-12-14T16:20:54.525Z,41.43
2022-12-14T16:23:36.065Z,45.50
2022-12-14T16:26:15.227Z,40.20
2022-12-14T16:28:42.736Z,41.33
2022-12-14T16:31:22.233Z,41.73
2022-12-14T16:34:15.074Z,43.10
2022-12-14T16:36:45.461Z,41.90
2022-12-14T16:39:23.781Z,40.57
2022-12-14T16:42:01.688Z,43.07
2022-12-14T16:44:31.597Z,40.00
2022-12-14T16:47:01.211Z,43.67
2022-12-14T16:49:28.076Z,40.53
2022-12-14T16:52:16.188Z,37.13
2022-12-14T16:54:43.145Z,41.83
2022-12-14T16:57:20.877Z,43.57
2022-12-14T16:59:56.793Z,38.53
2022-12-14T17:02:46.272Z,40.70
2022-12-14T17:05:18.503Z,38.20
2022-12-14T17:07:45.357Z,37.17
2022-12-14T17:10:17.894Z,34.83
2022-12-14T17:12:45.194Z,36.80
2022-12-14T17:15:17.021Z,36.83
2022-12-14T17:17:46.024Z,36.80
2022-12-14T17:20:36.852Z,38.33
2022-12-14T17:23:07.619Z,37.87
2022-12-14T17:25:35.550Z,36.70
2022-12-14T17:28:02.439Z,36.20
2022-12-14T17:30:29.326Z,40.00
2022-12-14T17:32:57.458Z,36.87
2022-12-14T17:35:32.213Z,39.43
2022-12-14T17:37:59.616Z,39.13
2022-12-14T17:40:27.560Z,38.50
2022-12-14T17:42:58.569Z,38.93
2022-12-14T17:45:28.053Z,35.20
2022-12-14T17:47:55.848Z,37.60
2022-12-14T17:50:23.011Z,38.73
2022-12-14T17:52:50.436Z,38.40
2022-12-14T17:55:22.314Z,38.73
2022-12-14T17:57:50.009Z,40.67
2022-12-14T18:00:37.756Z,38.53
2022-12-14T18:03:05.490Z,47.30
2022-12-14T18:05:33.207Z,42.73
2022-12-14T18:08:00.211Z,44.67
2022-12-14T18:10:27.681Z,46.43
2022-12-14T18:12:55.479Z,46.20
2022-12-14T18:15:26.220Z,45.30
2022-12-14T18:17:53.317Z,42.47
2022-12-14T18:20:21.665Z,40.33
2022-12-14T18:22:50.009Z,37.10
2022-12-14T18:25:34.124Z,37.60
2022-12-14T18:28:04.190Z,34.23
2022-12-14T18:30:39.485Z,34.63
2022-12-14T18:33:15.662Z,36.17
2022-12-14T18:35:43.795Z,35.80
2022-12-14T18:38:10.902Z,35.37
2022-12-14T18:40:39.217Z,38.17
2022-12-14T18:43:06.073Z,39.40
2022-12-14T18:45:34.942Z,36.30
2022-12-14T18:48:01.988Z,38.73
2022-12-14T18:50:29.756Z,35.97
2022-12-14T18:52:57.381Z,37.37
2022-12-14T18:55:29.907Z,35.37
2022-12-14T18:57:59.584Z,36.30
2022-12-14T19:00:29.617Z,37.93
2022-12-14T19:03:02.142Z,36.57
2022-12-14T19:05:30.406Z,36.40
2022-12-14T19:07:58.754Z,34.83
2022-12-14T19:10:30.957Z,38.63
2022-12-14T19:12:58.616Z,36.20
2022-12-14T19:15:31.157Z,39.63
2022-12-14T19:17:58.555Z,35.90
2022-12-14T19:20:26.782Z,37.50
2022-12-14T19:22:53.798Z,37.97
2022-12-14T19:25:22.411Z,37.37
2022-12-14T19:30:36.972Z,36.03
2022-12-14T19:33:04.020Z,35.37
2022-12-14T19:35:31.808Z,32.37
2022-12-14T19:37:58.665Z,35.57
2022-12-14T19:40:26.213Z,35.23
2022-12-14T19:42:53.251Z,36.03
2022-12-14T19:45:20.337Z,34.30
2022-12-14T19:47:47.188Z,36.07
2022-12-14T19:50:15.519Z,36.70
2022-12-14T19:52:43.422Z,38.23
2022-12-14T19:55:11.574Z,36.47
2022-12-14T19:57:40.147Z,36.97
2022-12-14T20:00:09.136Z,37.50
2022-12-14T20:02:38.842Z,35.10
2022-12-14T20:05:06.633Z,37.20
2022-12-14T20:07:35.426Z,37.50
2022-12-14T20:10:06.114Z,37.27
2022-12-14T20:12:34.198Z,38.83
2022-12-14T20:15:01.091Z,38.47
2022-12-14T20:17:27.999Z,37.57
2022-12-14T20:19:55.051Z,40.30
2022-12-14T20:22:21.885Z,36.97
2022-12-14T20:24:49.756Z,36.80
2022-12-14T20:27:17.381Z,40.00
2022-12-14T20:29:44.218Z,38.10
2022-12-14T20:32:11.660Z,38.07
2022-12-14T20:34:39.156Z,37.20
2022-12-14T20:37:08.069Z,40.30
2022-12-14T20:39:34.905Z,38.30
2022-12-14T20:42:01.787Z,38.30
2022-12-14T20:44:29.122Z,37.60
2022-12-14T20:46:56.052Z,37.63
2022-12-14T20:49:29.430Z,37.17
2022-12-14T20:51:56.882Z,35.60
2022-12-14T20:54:24.498Z,35.73
2022-12-14T20:56:51.555Z,34.30
2022-12-14T20:59:18.403Z,36.93
2022-12-14T21:01:51.690Z,35.40
2022-12-14T21:04:22.344Z,36.70
2022-12-14T21:06:49.342Z,35.00
2022-12-14T21:09:16.500Z,35.80
2022-12-14T21:12:04.521Z,37.60
2022-12-14T21:14:39.502Z,37.70
2022-12-14T21:17:06.588Z,38.27
2022-12-14T21:19:35.958Z,38.20
2022-12-14T21:22:07.625Z,35.70
2022-12-14T21:27:30.203Z,37.53
2022-12-14T21:29:57.018Z,37.83
2022-12-14T21:32:24.120Z,36.97
2022-12-14T21:34:51.222Z,36.27
2022-12-14T21:37:18.421Z,36.97
2022-12-14T21:39:52.315Z,39.07
2022-12-14T21:42:23.878Z,35.53
2022-12-14T21:44:52.700Z,39.73
2022-12-14T21:47:25.639Z,35.03
2022-12-14T21:49:53.269Z,37.80
2022-12-14T21:52:23.829Z,36.30
2022-12-14T21:54:50.663Z,36.77
2022-12-14T21:57:42.067Z,35.77
2022-12-14T22:00:10.406Z,36.13
2022-12-14T22:02:41.501Z,38.30
2022-12-14T22:05:09.391Z,36.03
2022-12-14T22:07:36.174Z,37.33
2022-12-14T22:10:03.654Z,36.83
2022-12-14T22:12:30.603Z,38.27
2022-12-14T22:14:57.568Z,38.63
2022-12-14T22:17:24.499Z,40.40
2022-12-14T22:19:52.177Z,36.93
2022-12-14T22:22:19.055Z,37.13
2022-12-14T22:24:49.222Z,40.23
2022-12-14T22:27:16.118Z,40.17
2022-12-14T22:29:42.941Z,45.47
2022-12-14T22:32:12.348Z,42.20
2022-12-14T22:34:39.473Z,39.67
2022-12-14T22:37:06.537Z,39.60
2022-12-14T22:39:33.499Z,42.10
2022-12-14T22:42:00.344Z,40.63
2022-12-14T22:44:27.292Z,36.43
2022-12-14T22:46:54.241Z,34.10
2022-12-14T22:49:21.221Z,40.13
2022-12-14T22:51:48.233Z,40.33
2022-12-14T22:54:22.454Z,37.00
2022-12-14T22:57:02.383Z,36.67
2022-12-14T22:59:42.914Z,37.03
2022-12-14T23:02:10.064Z,36.93
2022-12-14T23:04:38.045Z,39.27
2022-12-14T23:07:05.314Z,38.67
2022-12-14T23:09:50.861Z,39.93
2022-12-14T23:12:36.223Z,38.53
2022-12-14T23:15:21.982Z,38.20
2022-12-14T23:18:07.151Z,37.93
2022-12-14T23:20:52.607Z,38.20
2022-12-14T23:23:37.936Z,38.57
2022-12-14T23:26:23.529Z,39.47
2022-12-14T23:29:08.961Z,37.07
2022-12-14T23:31:54.265Z,37.73
2022-12-14T23:34:39.803Z,36.90
2022-12-14T23:37:25.088Z,39.20
2022-12-14T23:40:10.468Z,35.87
2022-12-14T23:42:55.889Z,38.33
2022-12-14T23:45:41.160Z,40.03
2022-12-14T23:48:26.617Z,37.63
2022-12-14T23:51:12.229Z,36.27
2022-12-14T23:53:57.581Z,37.67
2022-12-14T23:56:42.999Z,39.43
2022-12-14T23:59:32.266Z,36.27
